createdAt,value
2016-07-20T07:50:33.855Z,17605
2016-07-20T07:50:47.170Z,17599
2016-07-20T07:51:02.572Z,17591
2016-07-20T07:51:16.764Z,17566
2016-07-20T07:51:29.332Z,17551
2016-07-20T07:51:47.392Z,17540
2016-07-20T07:52:02.045Z,17524
2016-07-20T07:52:20.077Z,17514
2016-07-20T07:52:42.315Z,17503
2016-07-20T07:52:55.941Z,17484
2016-07-20T07:53:06.445Z,17471
2016-07-20T07:53:25.826Z,17465
2016-07-20T07:53:42.399Z,17454
2016-07-20T07:53:58.824Z,17440
2016-07-20T07:54:10.610Z,17430
2016-07-20T07:54:21.405Z,17417
2016-07-20T07:54:41.555Z,17401
2016-07-20T07:54:52.570Z,17392
2016-07-20T07:55:10.272Z,17386
2016-07-20T07:55:24.173Z,17381
2016-07-20T07:55:41.107Z,17366
2016-07-20T07:56:00.485Z,17355
2016-07-20T07:56:14.505Z,17329
2016-07-20T07:56:31.084Z,17330
2016-07-20T07:56:47.725Z,17320
2016-07-20T07:57:10.675Z,17295
2016-07-20T07:57:30.145Z,17283
2016-07-20T07:57:41.954Z,17264
2016-07-20T07:58:02.079Z,17253
2016-07-20T07:58:15.720Z,17240
2016-07-20T07:58:29.552Z,17229
2016-07-20T07:58:43.096Z,17218
2016-07-20T07:59:06.755Z,17205
2016-07-20T07:59:26.223Z,17183
2016-07-20T07:59:39.890Z,17176
2016-07-20T07:59:53.989Z,17176
2016-07-20T08:00:16.579Z,17132
2016-07-20T08:00:36.274Z,17119
2016-07-20T08:00:52.786Z,17108
2016-07-20T08:01:12.320Z,17087
2016-07-20T08:01:27.088Z,17076
2016-07-20T08:01:40.937Z,17086
2016-07-20T08:01:57.500Z,17066
2016-07-20T08:02:10.968Z,17059
2016-07-20T08:02:28.012Z,17064
2016-07-20T08:02:47.388Z,17066
2016-07-20T08:03:00.995Z,17050
2016-07-20T08:03:11.572Z,17050
2016-07-20T08:03:31.115Z,17042
2016-07-20T08:03:44.843Z,17028
2016-07-20T08:03:58.543Z,17026
2016-07-20T08:04:17.987Z,17013
2016-07-20T08:04:37.535Z,16998
2016-07-20T08:04:54.333Z,16977
2016-07-20T08:06:56.361Z,15884
2016-07-20T08:07:12.860Z,15901
2016-07-20T08:07:29.363Z,15878
2016-07-20T08:07:46.259Z,15870
2016-07-20T08:08:02.607Z,15907
2016-07-20T08:08:22.037Z,16066
2016-07-20T08:08:41.522Z,16163
2016-07-20T08:09:00.800Z,16147
2016-07-20T08:09:20.160Z,16142
2016-07-20T08:09:37.133Z,16134
2016-07-20T08:09:50.700Z,16126
2016-07-20T08:10:07.762Z,16115
2016-07-20T08:10:27.099Z,16109
2016-07-20T08:10:43.674Z,16115
2016-07-20T08:11:03.078Z,16103
2016-07-20T08:11:22.530Z,16098
2016-07-20T08:11:39.666Z,16086
2016-07-20T08:11:53.942Z,16089
2016-07-20T08:12:17.255Z,16089
2016-07-20T08:12:33.869Z,16082
2016-07-20T08:12:56.233Z,16057
2016-07-20T08:13:09.656Z,16049
2016-07-20T08:13:23.266Z,16046
2016-07-20T08:13:45.680Z,16041
2016-07-20T08:14:02.300Z,16029
2016-07-20T08:14:15.830Z,16015
2016-07-20T08:14:32.309Z,16017
2016-07-20T08:14:48.910Z,16014
2016-07-20T08:15:02.665Z,16011
2016-07-20T08:15:27.929Z,16016
2016-07-20T08:15:47.699Z,16013
2016-07-20T08:16:04.320Z,15981
2016-07-20T08:16:23.801Z,15996
2016-07-20T08:16:49.088Z,15970
2016-07-20T08:17:08.425Z,15967
2016-07-20T08:17:24.973Z,15964
2016-07-20T08:17:44.833Z,15961
2016-07-20T08:18:04.153Z,15946
2016-07-20T08:18:26.479Z,15945
2016-07-20T08:18:45.984Z,15928
2016-07-20T08:19:05.446Z,15939
2016-07-20T08:19:28.418Z,15885
2016-07-20T08:19:44.937Z,15924
2016-07-20T08:20:04.239Z,15935
2016-07-20T08:20:21.296Z,15906
2016-07-20T08:20:43.571Z,15906
2016-07-20T08:20:57.302Z,15892
2016-07-20T08:21:16.770Z,15892
2016-07-20T08:21:30.373Z,15871
2016-07-20T08:21:52.606Z,15889
2016-07-20T08:22:11.932Z,15876
2016-07-20T08:22:34.274Z,15874
2016-07-20T08:22:50.904Z,15872
2016-07-20T08:23:08.687Z,15876
2016-07-20T08:23:28.044Z,15849
2016-07-20T08:23:51.430Z,15821
2016-07-20T08:24:10.854Z,15835
2016-07-20T08:24:30.652Z,15821
2016-07-20T08:24:52.012Z,15810
2016-07-20T08:25:08.492Z,15798
2016-07-20T08:25:26.076Z,15806
2016-07-20T08:25:48.499Z,15800
2016-07-20T08:26:08.975Z,15782
2016-07-20T08:26:22.566Z,15790
2016-07-20T08:26:39.173Z,15786
2016-07-20T08:26:52.796Z,15773
2016-07-20T08:27:09.462Z,15762
2016-07-20T08:27:34.663Z,15756
2016-07-20T08:27:54.022Z,15761
2016-07-20T08:28:13.491Z,15755
2016-07-20T08:28:35.802Z,15741
2016-07-20T08:28:52.627Z,15763
2016-07-20T08:29:12.144Z,15741
2016-07-20T08:29:37.650Z,15736
2016-07-20T08:29:54.621Z,15738
2016-07-20T08:30:14.032Z,15730
2016-07-20T08:30:33.379Z,15719
2016-07-20T08:30:51.116Z,15705
2016-07-20T08:31:04.908Z,15698
2016-07-20T08:31:24.806Z,15685
2016-07-20T08:31:44.416Z,15679
2016-07-20T08:32:00.986Z,15662
2016-07-20T08:32:20.531Z,15632
2016-07-20T08:32:34.771Z,15617
2016-07-20T08:32:49.270Z,15617
2016-07-20T08:33:02.986Z,15609
2016-07-20T08:33:22.342Z,15615
2016-07-20T08:33:38.785Z,15598
2016-07-20T08:33:55.397Z,15583
2016-07-20T08:34:17.783Z,15572
2016-07-20T08:34:28.470Z,15558
2016-07-20T08:34:47.994Z,15547
2016-07-20T08:35:04.541Z,15545
2016-07-20T08:35:21.527Z,15534
2016-07-20T08:35:44.915Z,15522
2016-07-20T08:36:01.443Z,15514
2016-07-20T08:36:12.323Z,15525
2016-07-20T08:36:25.997Z,15512
2016-07-20T08:36:42.413Z,15500
2016-07-20T08:36:58.988Z,15482
2016-07-20T08:37:13.196Z,15482
2016-07-20T08:37:26.822Z,15484
2016-07-20T08:37:50.132Z,15469
2016-07-20T08:38:13.111Z,15471
2016-07-20T08:38:29.504Z,15457
2016-07-20T08:38:51.689Z,15440
2016-07-20T08:39:11.120Z,15443
2016-07-20T08:39:27.408Z,15448
2016-07-20T08:39:49.761Z,15422
2016-07-20T08:40:09.225Z,15419
2016-07-20T08:40:25.839Z,15413
2016-07-20T08:40:48.057Z,15403
2016-07-20T08:41:04.551Z,15395
2016-07-20T08:41:23.948Z,15389
2016-07-20T08:41:37.708Z,15396
2016-07-20T08:41:57.180Z,15383
2016-07-20T08:42:16.534Z,15375
2016-07-20T08:42:33.037Z,15381
2016-07-20T08:42:52.540Z,15371
2016-07-20T08:43:03.277Z,15373
2016-07-20T08:43:23.270Z,15373
2016-07-20T08:43:42.807Z,15368
2016-07-20T08:44:02.374Z,15350
2016-07-20T08:44:25.968Z,15332
2016-07-20T08:44:51.151Z,15336
2016-07-20T08:45:13.488Z,15335
2016-07-20T08:45:35.664Z,15324
2016-07-20T08:45:49.356Z,15322
2016-07-20T08:46:05.955Z,15303
2016-07-20T08:46:26.016Z,15306
2016-07-20T08:46:45.630Z,15300
2016-07-20T08:47:04.970Z,15303
2016-07-20T08:47:28.397Z,15297
2016-07-20T08:47:45.290Z,15294
2016-07-20T08:48:01.860Z,15291
2016-07-20T08:48:21.277Z,15275
